x

Buoy I01 - Eastern Maine Shelf (44034) Weather Station

5:04am - Fri 28th Jul 2017 All times are EDT. -4 hours from GMT.

  • Wind
    7mph, 9mph gusts
  • Sea Temp 53°f
  • Air Temp 55°f
  • Sea Pressure 1007.5mb
  • Buoy I01 - Eastern Maine Shelf
  • Buoy I01 - Eastern Maine Shelf

More Historic Weather Station data

Upgrade to MSW Pro to gain access to the past 30 days of data for over 8000 Wavebouys and Weather Stations around the globe.

Join Pro

Comparision Forecast

View Surf forecast
   
Fri 07/28 5:04am  -   -  7 9 mph 1007.5mb 53f 55f
4:04am 3.5ft 6s 7 7 mph 1007.2mb 53f 55f
3:04am 3.5ft 6s 7 9 mph 1007.3mb 53f 55f
2:04am 4ft 6s 4 4 mph 1007.7mb 52f 55f
1:04am 4ft 5s 9 11 mph 1008.1mb 52f 56f
12:04am 4.5ft 5s 13 16 mph 1008.4mb 52f 56f
Thu 07/27 11:04pm 4.5ft 5s 13 16 mph 1008.6mb 52f 56f
10:04pm 4.5ft 5s 16 18 mph 1009.2mb 52f 57f
9:04pm 4.5ft 5s 13 16 mph 1009.9mb 52f 57f
8:04pm 4.5ft 5s 13 16 mph 1009.9mb 53f 57f
7:04pm 3.5ft 5s 11 13 mph 1010.2mb 53f 58f
6:04pm 3.5ft 5s 13 16 mph 1010.2mb 53f 58f
5:04pm 3.5ft 5s 13 18 mph 1010.5mb 53f 58f
4:04pm 4ft 5s 13 16 mph 1011mb 53f 58f
3:04pm 3ft 5s 13 16 mph 1011.4mb 53f 58f
2:04pm 3ft 4s 16 18 mph 1011.9mb 53f 58f
1:04pm 3.5ft 4s 16 18 mph 1012.6mb 53f 57f
12:04pm 2.5ft 4s 11 13 mph 1013.2mb 53f 57f
11:04am 2.5ft 6s 11 13 mph 1014mb 53f 57f
10:04am 2.5ft 8s 9 11 mph 1014.6mb 53f 56f
9:04am 1.6ft 3s 11 11 mph 1015.2mb 53f 56f
8:04am 2.5ft 8s 11 11 mph 1015.6mb 53f 57f
7:04am 0.7ft  -  11 11 mph 1015.7mb 52f 57f
6:04am 2ft 6s 9 11 mph 1015.8mb 52f 56f
5:04am 2ft 6s 9 11 mph 1016.1mb 52f 56f
4:04am 1.6ft 6s 7 9 mph 1016.4mb 52f 55f
3:04am 2ft 8s 7 7 mph 1016.6mb 52f 55f
2:04am 1.6ft 8s 9 11 mph 1017.2mb 52f 55f
1:04am 1.6ft 8s 2 4 mph 1017.7mb 52f 53f
12:04am 1.6ft 8s 7 7 mph 1017.8mb 52f 55f
Wed 07/26 11:04pm 2ft 8s 7 7 mph 1018.6mb 52f 54f
10:04pm 1.6ft 8s 4 7 mph 1019.3mb 52f 53f
9:04pm 1.6ft 8s 4 4 mph 1019.6mb 52f 53f
7:04pm 2ft 6s 4 7 mph 1019.7mb 53f 57f
6:04pm 2ft 8s 4 4 mph 1019.9mb 53f 57f
5:04pm 2.5ft 6s 4 4 mph 1020mb 52f 58f
4:04pm 2ft 8s 4 7 mph 1020.5mb 51f 60f
3:04pm 2.5ft 8s 4 4 mph 1020.8mb 53f 59f
2:04pm 2.5ft 6s 4 4 mph 1021.3mb 52f 59f
1:04pm 2.5ft 8s 4 4 mph 1021.6mb 52f 58f
12:04pm 2.5ft 8s 4 4 mph 1022.1mb 54f 57f
11:04am 2.5ft 8s 4 4 mph 1022.3mb 51f 57f
10:04am 2.5ft 8s 2 4 mph 1022.5mb 51f 56f
9:04am 2.5ft 8s 2 4 mph 1022.7mb 51f 56f
8:04am 2.5ft 8s 2 2 mph 1022.8mb 51f 56f
7:04am 2.5ft 8s  -  2 mph 1022.3mb 50f 59f
6:04am 2.5ft 11s 2 2 mph 1022.1mb 52f 54f
5:04am 2.5ft 8s 2 2 mph 1021.5mb 49f 52f
4:04am 2.5ft 8s 4 4 mph 1021.2mb 50f 52f
3:04am 2.5ft 8s 7 7 mph 1020.9mb 50f 53f
2:04am 3ft 8s 7 7 mph 1020.9mb 50f 53f
1:04am 3ft 8s 4 7 mph 1021.3mb 50f 53f
12:04am 2.5ft 8s 4 7 mph 1021.3mb 50f 53f
Tue 07/25 11:04pm 2.5ft 8s 7 7 mph 1021.3mb 50f 54f
10:04pm 3ft 8s 4 4 mph 1020.7mb 51f 54f
9:04pm 3ft 8s 4 4 mph 1020.5mb 51f 54f
8:04pm 3ft 8s 4 7 mph 1020.1mb 50f 55f
7:04pm 3ft 8s 4 4 mph 1019.7mb 51f 55f
6:04pm 3ft 8s 4 4 mph 1019.7mb 51f 58f
5:04pm 3ft 8s 2 2 mph 1019.4mb 51f 59f
4:04pm 3.5ft 6s 2 4 mph 1019.2mb 51f 58f
3:04pm 3ft 8s 4 7 mph 1018.7mb 51f 57f
2:04pm 3.5ft 8s 7 7 mph 1018.4mb 51f 56f
1:04pm 3ft 8s 9 11 mph 1018mb 51f 57f
12:04pm 3ft 8s 7 9 mph 1017.5mb 51f 55f
11:04am 3.5ft 8s 11 11 mph 1017.2mb 50f 55f
10:04am 3.5ft 8s 9 11 mph 1017.4mb 50f 54f
9:04am 3.5ft 8s 11 13 mph 1017.6mb 50f 54f
8:04am 4.5ft 6s 13 16 mph 1017mb 50f 53f
7:04am 3.5ft 8s 13 16 mph 1016.4mb 50f 53f
6:04am 3.5ft 5s 13 18 mph 1015.9mb 50f 53f
5:04am 4ft 5s 13 16 mph 1014.9mb 50f 53f
4:04am 4ft 5s 13 16 mph 1014.2mb 50f 52f
3:04am 4.5ft 5s 16 18 mph 1014.1mb 49f 52f
2:04am 4ft 5s 18 22 mph 1014.2mb 50f 52f
1:04am 4ft 5s 20 25 mph 1013.7mb 50f 52f
12:04am 4ft 5s 22 27 mph 1013.8mb 50f 52f
Mon 07/24 11:04pm 3.5ft 5s 20 22 mph 1014.3mb 51f 52f
10:04pm 3.5ft 4s 18 22 mph 1015mb 51f 53f
9:04pm 2.5ft 4s 18 20 mph 1015.5mb 51f 53f
8:04pm 3ft 8s 20 22 mph 1015.2mb 51f 53f
7:04pm 2ft 5s 11 13 mph 1016.5mb 52f 53f
6:04pm 2ft 5s 13 13 mph 1015.6mb 52f 54f
4:04pm 2.5ft 8s 13 16 mph 1015.2mb 52f 54f
3:04pm 2ft 8s 9 9 mph 1015.9mb 52f 55f
2:04pm 2ft 8s 9 11 mph 1015.7mb 52f 55f
1:04pm 1.6ft 6s 9 11 mph 1015.9mb 53f 55f
12:04pm 2ft 8s 9 9 mph 1016.4mb 53f 54f